sensor_id;sensor_type;location;lat;lon;timestamp;P1;durP1;ratioP1;P2;durP2;ratioP2
19179;SDS011;9722;48.754;8.868;2022-11-20T00:00:27;4.27;;;3.30;;
19179;SDS011;9722;48.754;8.868;2022-11-20T00:03:48;3.33;;;3.03;;
19179;SDS011;9722;48.754;8.868;2022-11-20T00:07:11;3.93;;;3.60;;
19179;SDS011;9722;48.754;8.868;2022-11-20T00:10:31;4.03;;;3.30;;
19179;SDS011;9722;48.754;8.868;2022-11-20T00:13:53;2.67;;;2.47;;
19179;SDS011;9722;48.754;8.868;2022-11-20T00:17:15;3.10;;;2.80;;
19179;SDS011;9722;48.754;8.868;2022-11-20T00:20:35;3.50;;;3.20;;
19179;SDS011;9722;48.754;8.868;2022-11-20T00:23:57;4.67;;;2.70;;
19179;SDS011;9722;48.754;8.868;2022-11-20T00:27:18;2.80;;;2.60;;
19179;SDS011;9722;48.754;8.868;2022-11-20T00:30:38;3.13;;;2.20;;
19179;SDS011;9722;48.754;8.868;2022-11-20T00:33:59;3.30;;;2.93;;
19179;SDS011;9722;48.754;8.868;2022-11-20T00:37:19;2.63;;;2.23;;
19179;SDS011;9722;48.754;8.868;2022-11-20T00:40:40;2.40;;;2.20;;
19179;SDS011;9722;48.754;8.868;2022-11-20T00:44:00;3.23;;;2.97;;
19179;SDS011;9722;48.754;8.868;2022-11-20T00:47:21;4.97;;;3.20;;
19179;SDS011;9722;48.754;8.868;2022-11-20T00:50:41;4.13;;;3.30;;
19179;SDS011;9722;48.754;8.868;2022-11-20T00:54:02;2.97;;;2.77;;
19179;SDS011;9722;48.754;8.868;2022-11-20T00:57:23;3.20;;;2.80;;
19179;SDS011;9722;48.754;8.868;2022-11-20T01:00:43;2.27;;;2.17;;
19179;SDS011;9722;48.754;8.868;2022-11-20T01:04:04;2.87;;;2.30;;
19179;SDS011;9722;48.754;8.868;2022-11-20T01:07:24;3.23;;;2.47;;
19179;SDS011;9722;48.754;8.868;2022-11-20T01:10:45;3.30;;;2.03;;
19179;SDS011;9722;48.754;8.868;2022-11-20T01:14:07;2.60;;;2.40;;
19179;SDS011;9722;48.754;8.868;2022-11-20T01:17:33;2.17;;;2.07;;
19179;SDS011;9722;48.754;8.868;2022-11-20T01:20:53;2.13;;;1.80;;
19179;SDS011;9722;48.754;8.868;2022-11-20T01:24:15;1.90;;;1.80;;
19179;SDS011;9722;48.754;8.868;2022-11-20T01:27:37;1.80;;;1.70;;
19179;SDS011;9722;48.754;8.868;2022-11-20T01:30:57;2.23;;;2.03;;
19179;SDS011;9722;48.754;8.868;2022-11-20T01:34:19;2.37;;;2.17;;
19179;SDS011;9722;48.754;8.868;2022-11-20T01:37:41;3.43;;;2.10;;
19179;SDS011;9722;48.754;8.868;2022-11-20T01:41:02;2.73;;;2.07;;
19179;SDS011;9722;48.754;8.868;2022-11-20T01:48:14;1.73;;;1.63;;
19179;SDS011;9722;48.754;8.868;2022-11-20T01:51:38;5.17;;;1.87;;
19179;SDS011;9722;48.754;8.868;2022-11-20T01:55:15;1.70;;;1.60;;
19179;SDS011;9722;48.754;8.868;2022-11-20T01:58:42;4.40;;;3.33;;
19179;SDS011;9722;48.754;8.868;2022-11-20T02:02:06;5.13;;;3.40;;
19179;SDS011;9722;48.754;8.868;2022-11-20T02:05:34;2.70;;;2.50;;
19179;SDS011;9722;48.754;8.868;2022-11-20T02:08:58;1.80;;;1.70;;
19179;SDS011;9722;48.754;8.868;2022-11-20T02:12:19;2.10;;;1.90;;
19179;SDS011;9722;48.754;8.868;2022-11-20T02:15:58;1.97;;;1.87;;
19179;SDS011;9722;48.754;8.868;2022-11-20T02:23:20;2.00;;;1.70;;
19179;SDS011;9722;48.754;8.868;2022-11-20T02:26:44;2.20;;;1.50;;
19179;SDS011;9722;48.754;8.868;2022-11-20T02:30:11;3.13;;;1.47;;
19179;SDS011;9722;48.754;8.868;2022-11-20T02:33:31;2.37;;;1.73;;
19179;SDS011;9722;48.754;8.868;2022-11-20T02:36:52;2.03;;;1.63;;
19179;SDS011;9722;48.754;8.868;2022-11-20T02:40:13;1.57;;;1.47;;
19179;SDS011;9722;48.754;8.868;2022-11-20T02:43:33;1.73;;;1.60;;
19179;SDS011;9722;48.754;8.868;2022-11-20T02:46:56;1.50;;;1.40;;
19179;SDS011;9722;48.754;8.868;2022-11-20T02:50:18;2.17;;;1.60;;
19179;SDS011;9722;48.754;8.868;2022-11-20T02:53:38;1.90;;;1.80;;
19179;SDS011;9722;48.754;8.868;2022-11-20T02:56:59;2.13;;;1.93;;
19179;SDS011;9722;48.754;8.868;2022-11-20T03:00:20;1.93;;;1.50;;
19179;SDS011;9722;48.754;8.868;2022-11-20T03:03:40;2.17;;;1.97;;
19179;SDS011;9722;48.754;8.868;2022-11-20T03:07:01;1.70;;;1.60;;
19179;SDS011;9722;48.754;8.868;2022-11-20T03:10:21;1.90;;;1.80;;
19179;SDS011;9722;48.754;8.868;2022-11-20T03:13:42;1.90;;;1.67;;
19179;SDS011;9722;48.754;8.868;2022-11-20T03:17:02;2.13;;;1.90;;
19179;SDS011;9722;48.754;8.868;2022-11-20T03:20:23;1.90;;;1.70;;
19179;SDS011;9722;48.754;8.868;2022-11-20T03:23:43;1.70;;;1.60;;
19179;SDS011;9722;48.754;8.868;2022-11-20T03:27:04;3.30;;;1.57;;
19179;SDS011;9722;48.754;8.868;2022-11-20T03:30:25;2.03;;;1.93;;
19179;SDS011;9722;48.754;8.868;2022-11-20T03:33:45;1.87;;;1.77;;
19179;SDS011;9722;48.754;8.868;2022-11-20T03:37:06;1.97;;;1.77;;
19179;SDS011;9722;48.754;8.868;2022-11-20T03:40:26;3.87;;;1.87;;
19179;SDS011;9722;48.754;8.868;2022-11-20T03:43:51;2.10;;;2.00;;
19179;SDS011;9722;48.754;8.868;2022-11-20T03:47:13;2.10;;;1.97;;
19179;SDS011;9722;48.754;8.868;2022-11-20T03:50:34;3.63;;;1.50;;
19179;SDS011;9722;48.754;8.868;2022-11-20T03:53:55;1.60;;;1.50;;
19179;SDS011;9722;48.754;8.868;2022-11-20T03:57:17;1.83;;;1.73;;
19179;SDS011;9722;48.754;8.868;2022-11-20T04:00:38;1.90;;;1.80;;
19179;SDS011;9722;48.754;8.868;2022-11-20T04:03:59;3.50;;;2.10;;
19179;SDS011;9722;48.754;8.868;2022-11-20T04:07:19;2.40;;;2.20;;
19179;SDS011;9722;48.754;8.868;2022-11-20T04:10:40;2.57;;;1.93;;
19179;SDS011;9722;48.754;8.868;2022-11-20T04:14:02;2.10;;;1.97;;
19179;SDS011;9722;48.754;8.868;2022-11-20T04:17:24;2.07;;;1.87;;
19179;SDS011;9722;48.754;8.868;2022-11-20T04:20:44;2.30;;;1.97;;
19179;SDS011;9722;48.754;8.868;2022-11-20T04:24:05;2.33;;;2.13;;
19179;SDS011;9722;48.754;8.868;2022-11-20T04:27:26;2.50;;;2.30;;
19179;SDS011;9722;48.754;8.868;2022-11-20T04:30:46;2.40;;;2.20;;
19179;SDS011;9722;48.754;8.868;2022-11-20T04:34:07;2.53;;;1.93;;
19179;SDS011;9722;48.754;8.868;2022-11-20T04:37:30;2.50;;;2.10;;
19179;SDS011;9722;48.754;8.868;2022-11-20T04:40:51;2.43;;;2.23;;
19179;SDS011;9722;48.754;8.868;2022-11-20T04:44:16;2.47;;;2.17;;
19179;SDS011;9722;48.754;8.868;2022-11-20T04:47:37;2.03;;;1.93;;
19179;SDS011;9722;48.754;8.868;2022-11-20T04:50:57;2.00;;;1.90;;
19179;SDS011;9722;48.754;8.868;2022-11-20T04:54:22;1.90;;;1.80;;
19179;SDS011;9722;48.754;8.868;2022-11-20T04:57:42;2.23;;;1.90;;
19179;SDS011;9722;48.754;8.868;2022-11-20T05:01:04;2.27;;;1.97;;
19179;SDS011;9722;48.754;8.868;2022-11-20T05:04:30;2.20;;;1.80;;
19179;SDS011;9722;48.754;8.868;2022-11-20T05:07:50;2.27;;;1.87;;
19179;SDS011;9722;48.754;8.868;2022-11-20T05:11:12;1.90;;;1.80;;
19179;SDS011;9722;48.754;8.868;2022-11-20T05:14:34;2.67;;;2.30;;
19179;SDS011;9722;48.754;8.868;2022-11-20T05:17:55;1.70;;;1.60;;
19179;SDS011;9722;48.754;8.868;2022-11-20T05:21:16;2.40;;;2.20;;
19179;SDS011;9722;48.754;8.868;2022-11-20T05:24:36;2.43;;;2.23;;
19179;SDS011;9722;48.754;8.868;2022-11-20T05:27:57;3.60;;;2.47;;
19179;SDS011;9722;48.754;8.868;2022-11-20T05:31:18;2.40;;;2.13;;
19179;SDS011;9722;48.754;8.868;2022-11-20T05:34:40;2.43;;;1.80;;
19179;SDS011;9722;48.754;8.868;2022-11-20T05:38:01;1.93;;;1.83;;
19179;SDS011;9722;48.754;8.868;2022-11-20T05:41:21;1.80;;;1.70;;
19179;SDS011;9722;48.754;8.868;2022-11-20T05:44:42;3.47;;;2.13;;
19179;SDS011;9722;48.754;8.868;2022-11-20T05:48:02;2.50;;;2.23;;
19179;SDS011;9722;48.754;8.868;2022-11-20T05:51:23;3.70;;;1.90;;
19179;SDS011;9722;48.754;8.868;2022-11-20T05:54:44;2.30;;;2.00;;
19179;SDS011;9722;48.754;8.868;2022-11-20T05:58:05;1.83;;;1.73;;
19179;SDS011;9722;48.754;8.868;2022-11-20T06:01:25;3.67;;;2.13;;
19179;SDS011;9722;48.754;8.868;2022-11-20T06:04:46;1.80;;;1.70;;
19179;SDS011;9722;48.754;8.868;2022-11-20T06:08:07;2.57;;;2.37;;
19179;SDS011;9722;48.754;8.868;2022-11-20T06:11:27;1.97;;;1.87;;
19179;SDS011;9722;48.754;8.868;2022-11-20T06:14:48;2.30;;;1.80;;
19179;SDS011;9722;48.754;8.868;2022-11-20T06:18:08;2.20;;;2.00;;
19179;SDS011;9722;48.754;8.868;2022-11-20T06:21:29;2.63;;;2.17;;
19179;SDS011;9722;48.754;8.868;2022-11-20T06:24:49;1.87;;;1.77;;
19179;SDS011;9722;48.754;8.868;2022-11-20T06:28:10;1.50;;;1.40;;
19179;SDS011;9722;48.754;8.868;2022-11-20T06:31:30;2.07;;;1.67;;
19179;SDS011;9722;48.754;8.868;2022-11-20T06:34:54;2.30;;;1.90;;
19179;SDS011;9722;48.754;8.868;2022-11-20T06:38:15;2.37;;;1.50;;
19179;SDS011;9722;48.754;8.868;2022-11-20T06:41:35;1.93;;;1.50;;
19179;SDS011;9722;48.754;8.868;2022-11-20T06:44:56;1.50;;;1.40;;
19179;SDS011;9722;48.754;8.868;2022-11-20T06:48:17;2.00;;;1.80;;
19179;SDS011;9722;48.754;8.868;2022-11-20T06:51:37;1.73;;;1.63;;
19179;SDS011;9722;48.754;8.868;2022-11-20T06:54:58;1.80;;;1.70;;
19179;SDS011;9722;48.754;8.868;2022-11-20T06:58:18;1.40;;;1.10;;
19179;SDS011;9722;48.754;8.868;2022-11-20T07:01:39;1.40;;;1.30;;
19179;SDS011;9722;48.754;8.868;2022-11-20T07:04:59;1.90;;;1.40;;
19179;SDS011;9722;48.754;8.868;2022-11-20T07:08:20;1.30;;;1.20;;
19179;SDS011;9722;48.754;8.868;2022-11-20T07:11:40;1.60;;;1.50;;
19179;SDS011;9722;48.754;8.868;2022-11-20T07:15:01;2.30;;;1.70;;
19179;SDS011;9722;48.754;8.868;2022-11-20T07:18:22;9.83;;;5.23;;
19179;SDS011;9722;48.754;8.868;2022-11-20T07:21:42;12.17;;;8.00;;
19179;SDS011;9722;48.754;8.868;2022-11-20T07:25:03;5.67;;;5.17;;
19179;SDS011;9722;48.754;8.868;2022-11-20T07:28:24;2.80;;;2.60;;
19179;SDS011;9722;48.754;8.868;2022-11-20T07:31:44;1.67;;;1.57;;
19179;SDS011;9722;48.754;8.868;2022-11-20T07:35:05;2.77;;;1.40;;
19179;SDS011;9722;48.754;8.868;2022-11-20T07:38:26;1.87;;;1.77;;
19179;SDS011;9722;48.754;8.868;2022-11-20T07:41:46;1.47;;;1.37;;
19179;SDS011;9722;48.754;8.868;2022-11-20T07:45:07;0.80;;;0.80;;
19179;SDS011;9722;48.754;8.868;2022-11-20T07:48:28;0.87;;;0.87;;
19179;SDS011;9722;48.754;8.868;2022-11-20T07:51:51;1.00;;;0.70;;
19179;SDS011;9722;48.754;8.868;2022-11-20T07:55:13;0.60;;;0.60;;
19179;SDS011;9722;48.754;8.868;2022-11-20T07:58:34;0.97;;;0.97;;
19179;SDS011;9722;48.754;8.868;2022-11-20T08:01:55;0.70;;;0.70;;
19179;SDS011;9722;48.754;8.868;2022-11-20T08:05:15;1.07;;;0.57;;
19179;SDS011;9722;48.754;8.868;2022-11-20T08:08:36;0.50;;;0.50;;
19179;SDS011;9722;48.754;8.868;2022-11-20T08:11:56;0.60;;;0.60;;
19179;SDS011;9722;48.754;8.868;2022-11-20T08:15:35;0.60;;;0.60;;
19179;SDS011;9722;48.754;8.868;2022-11-20T08:18:57;0.63;;;0.50;;
19179;SDS011;9722;48.754;8.868;2022-11-20T08:22:17;0.50;;;0.50;;
19179;SDS011;9722;48.754;8.868;2022-11-20T08:25:38;0.60;;;0.60;;
19179;SDS011;9722;48.754;8.868;2022-11-20T08:28:59;0.97;;;0.90;;
19179;SDS011;9722;48.754;8.868;2022-11-20T08:32:19;1.00;;;0.90;;
19179;SDS011;9722;48.754;8.868;2022-11-20T08:35:40;0.70;;;0.70;;
19179;SDS011;9722;48.754;8.868;2022-11-20T08:39:01;0.70;;;0.70;;
19179;SDS011;9722;48.754;8.868;2022-11-20T08:42:22;0.77;;;0.70;;
19179;SDS011;9722;48.754;8.868;2022-11-20T08:45:43;0.60;;;0.60;;
19179;SDS011;9722;48.754;8.868;2022-11-20T08:49:04;0.70;;;0.60;;
19179;SDS011;9722;48.754;8.868;2022-11-20T08:52:27;0.60;;;0.60;;
19179;SDS011;9722;48.754;8.868;2022-11-20T08:55:47;0.90;;;0.83;;
19179;SDS011;9722;48.754;8.868;2022-11-20T08:59:08;0.60;;;0.60;;
19179;SDS011;9722;48.754;8.868;2022-11-20T09:02:28;0.90;;;0.90;;
19179;SDS011;9722;48.754;8.868;2022-11-20T09:05:49;1.37;;;0.60;;
19179;SDS011;9722;48.754;8.868;2022-11-20T09:09:09;1.10;;;1.00;;
19179;SDS011;9722;48.754;8.868;2022-11-20T09:12:30;0.90;;;0.80;;
19179;SDS011;9722;48.754;8.868;2022-11-20T09:15:54;0.50;;;0.43;;
19179;SDS011;9722;48.754;8.868;2022-11-20T09:19:16;0.80;;;0.57;;
19179;SDS011;9722;48.754;8.868;2022-11-20T09:22:39;0.70;;;0.53;;
19179;SDS011;9722;48.754;8.868;2022-11-20T09:26:06;0.57;;;0.43;;
19179;SDS011;9722;48.754;8.868;2022-11-20T09:29:29;0.57;;;0.57;;
19179;SDS011;9722;48.754;8.868;2022-11-20T09:32:50;0.97;;;0.30;;
19179;SDS011;9722;48.754;8.868;2022-11-20T09:36:10;0.60;;;0.60;;
19179;SDS011;9722;48.754;8.868;2022-11-20T09:39:31;0.60;;;0.50;;
19179;SDS011;9722;48.754;8.868;2022-11-20T09:46:22;0.60;;;0.50;;
19179;SDS011;9722;48.754;8.868;2022-11-20T09:57:35;2.30;;;1.03;;
19179;SDS011;9722;48.754;8.868;2022-11-20T10:01:09;0.70;;;0.70;;
19179;SDS011;9722;48.754;8.868;2022-11-20T10:04:38;1.10;;;0.97;;
19179;SDS011;9722;48.754;8.868;2022-11-20T10:26:43;0.80;;;0.70;;
19179;SDS011;9722;48.754;8.868;2022-11-20T10:30:16;1.17;;;1.17;;
19179;SDS011;9722;48.754;8.868;2022-11-20T10:33:42;1.60;;;1.50;;
19179;SDS011;9722;48.754;8.868;2022-11-20T10:37:10;0.87;;;0.87;;
19179;SDS011;9722;48.754;8.868;2022-11-20T10:40:37;0.80;;;0.80;;
19179;SDS011;9722;48.754;8.868;2022-11-20T10:44:05;1.93;;;1.50;;
19179;SDS011;9722;48.754;8.868;2022-11-20T10:47:30;0.77;;;0.77;;
19179;SDS011;9722;48.754;8.868;2022-11-20T10:54:35;1.40;;;1.30;;
19179;SDS011;9722;48.754;8.868;2022-11-20T11:02:19;1.13;;;0.80;;
19179;SDS011;9722;48.754;8.868;2022-11-20T11:05:46;1.47;;;0.97;;
19179;SDS011;9722;48.754;8.868;2022-11-20T11:09:18;6.13;;;5.53;;
19179;SDS011;9722;48.754;8.868;2022-11-20T11:12:53;2.93;;;2.40;;
19179;SDS011;9722;48.754;8.868;2022-11-20T11:16:24;1.13;;;1.03;;
19179;SDS011;9722;48.754;8.868;2022-11-20T11:19:56;2.60;;;2.23;;
19179;SDS011;9722;48.754;8.868;2022-11-20T11:23:34;1.77;;;0.90;;
19179;SDS011;9722;48.754;8.868;2022-11-20T11:27:03;4.63;;;4.10;;
19179;SDS011;9722;48.754;8.868;2022-11-20T11:30:40;3.60;;;3.30;;
19179;SDS011;9722;48.754;8.868;2022-11-20T11:37:26;1.70;;;1.60;;
19179;SDS011;9722;48.754;8.868;2022-11-20T11:40:56;3.60;;;1.93;;
19179;SDS011;9722;48.754;8.868;2022-11-20T11:44:21;0.80;;;0.80;;
19179;SDS011;9722;48.754;8.868;2022-11-20T11:48:01;2.47;;;1.97;;
19179;SDS011;9722;48.754;8.868;2022-11-20T11:51:25;1.70;;;0.80;;
19179;SDS011;9722;48.754;8.868;2022-11-20T11:55:09;1.23;;;0.80;;
19179;SDS011;9722;48.754;8.868;2022-11-20T11:58:44;1.10;;;1.00;;
19179;SDS011;9722;48.754;8.868;2022-11-20T12:02:11;1.20;;;1.00;;
19179;SDS011;9722;48.754;8.868;2022-11-20T12:05:58;1.90;;;0.67;;
19179;SDS011;9722;48.754;8.868;2022-11-20T12:09:26;0.77;;;0.60;;
19179;SDS011;9722;48.754;8.868;2022-11-20T12:12:55;1.47;;;0.50;;
19179;SDS011;9722;48.754;8.868;2022-11-20T12:16:23;1.17;;;0.90;;
19179;SDS011;9722;48.754;8.868;2022-11-20T12:19:44;0.83;;;0.50;;
19179;SDS011;9722;48.754;8.868;2022-11-20T12:23:08;0.47;;;0.40;;
19179;SDS011;9722;48.754;8.868;2022-11-20T12:30:20;1.80;;;0.60;;
19179;SDS011;9722;48.754;8.868;2022-11-20T12:34:00;1.00;;;0.60;;
19179;SDS011;9722;48.754;8.868;2022-11-20T12:59:55;1.10;;;1.00;;
19179;SDS011;9722;48.754;8.868;2022-11-20T13:03:32;1.40;;;0.40;;
19179;SDS011;9722;48.754;8.868;2022-11-20T13:06:59;1.03;;;0.50;;
19179;SDS011;9722;48.754;8.868;2022-11-20T13:10:49;2.50;;;1.00;;
19179;SDS011;9722;48.754;8.868;2022-11-20T13:17:36;2.63;;;1.37;;
19179;SDS011;9722;48.754;8.868;2022-11-20T13:24:57;1.70;;;0.90;;
19179;SDS011;9722;48.754;8.868;2022-11-20T13:31:40;2.47;;;1.30;;
19179;SDS011;9722;48.754;8.868;2022-11-20T13:35:08;1.57;;;1.47;;
19179;SDS011;9722;48.754;8.868;2022-11-20T13:38:39;1.77;;;1.27;;
19179;SDS011;9722;48.754;8.868;2022-11-20T13:45:32;2.03;;;1.80;;
19179;SDS011;9722;48.754;8.868;2022-11-20T13:48:52;1.63;;;1.47;;
19179;SDS011;9722;48.754;8.868;2022-11-20T13:59:35;2.70;;;1.50;;
19179;SDS011;9722;48.754;8.868;2022-11-20T14:06:42;1.37;;;1.27;;
19179;SDS011;9722;48.754;8.868;2022-11-20T14:10:04;2.20;;;1.00;;
19179;SDS011;9722;48.754;8.868;2022-11-20T14:13:25;1.57;;;1.40;;
19179;SDS011;9722;48.754;8.868;2022-11-20T14:16:46;1.33;;;1.10;;
19179;SDS011;9722;48.754;8.868;2022-11-20T14:20:11;1.40;;;1.10;;
19179;SDS011;9722;48.754;8.868;2022-11-20T14:23:34;1.00;;;1.00;;
19179;SDS011;9722;48.754;8.868;2022-11-20T14:26:55;0.90;;;0.90;;
19179;SDS011;9722;48.754;8.868;2022-11-20T14:30:16;5.03;;;1.30;;
19179;SDS011;9722;48.754;8.868;2022-11-20T14:33:39;1.10;;;1.00;;
19179;SDS011;9722;48.754;8.868;2022-11-20T14:37:01;1.37;;;1.10;;
19179;SDS011;9722;48.754;8.868;2022-11-20T14:40:28;1.47;;;0.90;;
19179;SDS011;9722;48.754;8.868;2022-11-20T14:43:56;1.37;;;0.87;;
19179;SDS011;9722;48.754;8.868;2022-11-20T14:47:18;3.30;;;2.13;;
19179;SDS011;9722;48.754;8.868;2022-11-20T14:50:42;1.17;;;1.07;;
19179;SDS011;9722;48.754;8.868;2022-11-20T14:57:33;3.17;;;2.43;;
19179;SDS011;9722;48.754;8.868;2022-11-20T15:01:05;1.63;;;1.40;;
19179;SDS011;9722;48.754;8.868;2022-11-20T15:04:27;2.70;;;2.50;;
19179;SDS011;9722;48.754;8.868;2022-11-20T15:07:49;2.13;;;1.50;;
19179;SDS011;9722;48.754;8.868;2022-11-20T15:11:29;2.27;;;2.00;;
19179;SDS011;9722;48.754;8.868;2022-11-20T15:14:51;2.23;;;2.00;;
19179;SDS011;9722;48.754;8.868;2022-11-20T15:18:12;2.87;;;1.50;;
19179;SDS011;9722;48.754;8.868;2022-11-20T15:21:34;2.80;;;2.40;;
19179;SDS011;9722;48.754;8.868;2022-11-20T15:24:55;3.50;;;3.20;;
19179;SDS011;9722;48.754;8.868;2022-11-20T15:28:35;4.00;;;3.20;;
19179;SDS011;9722;48.754;8.868;2022-11-20T15:31:57;3.17;;;2.87;;
19179;SDS011;9722;48.754;8.868;2022-11-20T15:35:17;2.73;;;2.53;;
19179;SDS011;9722;48.754;8.868;2022-11-20T15:38:38;2.23;;;2.10;;
19179;SDS011;9722;48.754;8.868;2022-11-20T15:41:59;2.77;;;2.47;;
19179;SDS011;9722;48.754;8.868;2022-11-20T15:45:19;3.90;;;2.37;;
19179;SDS011;9722;48.754;8.868;2022-11-20T15:48:41;3.50;;;2.80;;
19179;SDS011;9722;48.754;8.868;2022-11-20T15:52:04;5.03;;;4.40;;
19179;SDS011;9722;48.754;8.868;2022-11-20T15:55:24;3.03;;;2.83;;
19179;SDS011;9722;48.754;8.868;2022-11-20T15:58:46;4.20;;;3.57;;
19179;SDS011;9722;48.754;8.868;2022-11-20T16:02:13;3.53;;;2.60;;
19179;SDS011;9722;48.754;8.868;2022-11-20T16:05:35;2.60;;;2.40;;
19179;SDS011;9722;48.754;8.868;2022-11-20T16:08:55;4.00;;;3.70;;
19179;SDS011;9722;48.754;8.868;2022-11-20T16:12:16;3.87;;;3.57;;
19179;SDS011;9722;48.754;8.868;2022-11-20T16:15:57;3.80;;;2.87;;
19179;SDS011;9722;48.754;8.868;2022-11-20T16:19:19;4.97;;;4.37;;
19179;SDS011;9722;48.754;8.868;2022-11-20T16:22:39;5.67;;;4.33;;
19179;SDS011;9722;48.754;8.868;2022-11-20T16:26:08;4.17;;;3.07;;
19179;SDS011;9722;48.754;8.868;2022-11-20T16:29:33;1.97;;;1.70;;
19179;SDS011;9722;48.754;8.868;2022-11-20T16:32:54;1.30;;;1.20;;
19179;SDS011;9722;48.754;8.868;2022-11-20T16:36:14;1.67;;;1.40;;
19179;SDS011;9722;48.754;8.868;2022-11-20T16:39:35;1.83;;;1.63;;
19179;SDS011;9722;48.754;8.868;2022-11-20T16:42:56;1.70;;;1.40;;
19179;SDS011;9722;48.754;8.868;2022-11-20T16:46:17;2.53;;;2.33;;
19179;SDS011;9722;48.754;8.868;2022-11-20T16:49:39;4.43;;;4.00;;
19179;SDS011;9722;48.754;8.868;2022-11-20T16:53:00;4.60;;;3.50;;
19179;SDS011;9722;48.754;8.868;2022-11-20T16:56:21;3.20;;;2.33;;
19179;SDS011;9722;48.754;8.868;2022-11-20T16:59:43;4.57;;;4.00;;
19179;SDS011;9722;48.754;8.868;2022-11-20T17:03:04;3.23;;;2.93;;
19179;SDS011;9722;48.754;8.868;2022-11-20T17:06:26;5.57;;;3.37;;
19179;SDS011;9722;48.754;8.868;2022-11-20T17:09:48;2.87;;;2.67;;
19179;SDS011;9722;48.754;8.868;2022-11-20T17:13:09;3.47;;;3.03;;
19179;SDS011;9722;48.754;8.868;2022-11-20T17:16:30;2.77;;;2.43;;
19179;SDS011;9722;48.754;8.868;2022-11-20T17:19:50;2.57;;;1.90;;
19179;SDS011;9722;48.754;8.868;2022-11-20T17:23:11;2.77;;;1.77;;
19179;SDS011;9722;48.754;8.868;2022-11-20T17:26:31;2.30;;;2.10;;
19179;SDS011;9722;48.754;8.868;2022-11-20T17:29:53;3.53;;;1.57;;
19179;SDS011;9722;48.754;8.868;2022-11-20T17:33:13;2.20;;;2.00;;
19179;SDS011;9722;48.754;8.868;2022-11-20T17:36:34;2.33;;;2.13;;
19179;SDS011;9722;48.754;8.868;2022-11-20T17:39:54;2.13;;;1.93;;
19179;SDS011;9722;48.754;8.868;2022-11-20T17:43:15;2.63;;;2.27;;
19179;SDS011;9722;48.754;8.868;2022-11-20T17:46:36;3.53;;;2.60;;
19179;SDS011;9722;48.754;8.868;2022-11-20T17:49:56;2.57;;;2.30;;
19179;SDS011;9722;48.754;8.868;2022-11-20T17:53:17;1.67;;;1.57;;
19179;SDS011;9722;48.754;8.868;2022-11-20T17:56:37;6.10;;;1.70;;
19179;SDS011;9722;48.754;8.868;2022-11-20T18:00:16;1.77;;;1.67;;
19179;SDS011;9722;48.754;8.868;2022-11-20T18:03:38;2.40;;;2.07;;
19179;SDS011;9722;48.754;8.868;2022-11-20T18:06:58;2.10;;;1.87;;
19179;SDS011;9722;48.754;8.868;2022-11-20T18:10:19;4.07;;;2.13;;
19179;SDS011;9722;48.754;8.868;2022-11-20T18:13:40;2.00;;;1.90;;
19179;SDS011;9722;48.754;8.868;2022-11-20T18:17:20;2.13;;;1.80;;
19179;SDS011;9722;48.754;8.868;2022-11-20T18:20:40;2.80;;;2.20;;
19179;SDS011;9722;48.754;8.868;2022-11-20T18:24:01;2.67;;;1.90;;
19179;SDS011;9722;48.754;8.868;2022-11-20T18:27:21;2.47;;;2.27;;
19179;SDS011;9722;48.754;8.868;2022-11-20T18:30:42;3.10;;;2.70;;
19179;SDS011;9722;48.754;8.868;2022-11-20T18:34:03;3.77;;;3.20;;
19179;SDS011;9722;48.754;8.868;2022-11-20T18:37:23;4.10;;;3.70;;
19179;SDS011;9722;48.754;8.868;2022-11-20T18:40:44;4.97;;;4.57;;
19179;SDS011;9722;48.754;8.868;2022-11-20T18:44:10;2.27;;;2.10;;
19179;SDS011;9722;48.754;8.868;2022-11-20T18:47:51;1.57;;;1.40;;
19179;SDS011;9722;48.754;8.868;2022-11-20T18:51:11;2.17;;;1.77;;
19179;SDS011;9722;48.754;8.868;2022-11-20T18:54:35;2.20;;;2.10;;
19179;SDS011;9722;48.754;8.868;2022-11-20T18:57:56;0.97;;;0.80;;
19179;SDS011;9722;48.754;8.868;2022-11-20T19:01:16;0.80;;;0.80;;
19179;SDS011;9722;48.754;8.868;2022-11-20T19:04:37;1.53;;;0.80;;
19179;SDS011;9722;48.754;8.868;2022-11-20T19:07:57;0.60;;;0.60;;
19179;SDS011;9722;48.754;8.868;2022-11-20T19:11:18;1.33;;;1.23;;
19179;SDS011;9722;48.754;8.868;2022-11-20T19:14:39;0.63;;;0.63;;
19179;SDS011;9722;48.754;8.868;2022-11-20T19:17:59;1.20;;;1.10;;
19179;SDS011;9722;48.754;8.868;2022-11-20T19:21:21;1.70;;;0.97;;
19179;SDS011;9722;48.754;8.868;2022-11-20T19:24:43;0.67;;;0.67;;
19179;SDS011;9722;48.754;8.868;2022-11-20T19:28:04;0.60;;;0.60;;
19179;SDS011;9722;48.754;8.868;2022-11-20T19:31:25;0.80;;;0.80;;
19179;SDS011;9722;48.754;8.868;2022-11-20T19:34:46;1.20;;;0.80;;
19179;SDS011;9722;48.754;8.868;2022-11-20T19:38:06;2.17;;;1.20;;
19179;SDS011;9722;48.754;8.868;2022-11-20T19:41:27;1.43;;;0.70;;
19179;SDS011;9722;48.754;8.868;2022-11-20T19:44:50;0.40;;;0.40;;
19179;SDS011;9722;48.754;8.868;2022-11-20T19:48:10;0.60;;;0.60;;
19179;SDS011;9722;48.754;8.868;2022-11-20T19:51:32;0.50;;;0.50;;
19179;SDS011;9722;48.754;8.868;2022-11-20T19:54:53;0.63;;;0.60;;
19179;SDS011;9722;48.754;8.868;2022-11-20T19:58:14;0.60;;;0.40;;
19179;SDS011;9722;48.754;8.868;2022-11-20T20:01:34;0.60;;;0.60;;
19179;SDS011;9722;48.754;8.868;2022-11-20T20:04:55;2.07;;;1.60;;
19179;SDS011;9722;48.754;8.868;2022-11-20T20:08:15;0.70;;;0.70;;
19179;SDS011;9722;48.754;8.868;2022-11-20T20:11:36;0.80;;;0.60;;
19179;SDS011;9722;48.754;8.868;2022-11-20T20:14:57;1.07;;;0.87;;
19179;SDS011;9722;48.754;8.868;2022-11-20T20:18:18;0.53;;;0.53;;
19179;SDS011;9722;48.754;8.868;2022-11-20T20:21:38;0.70;;;0.70;;
19179;SDS011;9722;48.754;8.868;2022-11-20T20:25:00;0.93;;;0.87;;
19179;SDS011;9722;48.754;8.868;2022-11-20T20:28:20;1.30;;;0.83;;
19179;SDS011;9722;48.754;8.868;2022-11-20T20:31:41;1.77;;;0.70;;
19179;SDS011;9722;48.754;8.868;2022-11-20T20:35:01;0.60;;;0.60;;
19179;SDS011;9722;48.754;8.868;2022-11-20T20:38:22;2.53;;;0.70;;
19179;SDS011;9722;48.754;8.868;2022-11-20T20:41:43;0.50;;;0.50;;
19179;SDS011;9722;48.754;8.868;2022-11-20T20:45:03;0.90;;;0.70;;
19179;SDS011;9722;48.754;8.868;2022-11-20T20:48:29;1.70;;;0.70;;
19179;SDS011;9722;48.754;8.868;2022-11-20T20:51:50;0.83;;;0.60;;
19179;SDS011;9722;48.754;8.868;2022-11-20T20:55:11;1.07;;;0.70;;
19179;SDS011;9722;48.754;8.868;2022-11-20T20:58:31;0.87;;;0.50;;
19179;SDS011;9722;48.754;8.868;2022-11-20T21:01:52;1.13;;;0.80;;
19179;SDS011;9722;48.754;8.868;2022-11-20T21:05:13;0.40;;;0.40;;
19179;SDS011;9722;48.754;8.868;2022-11-20T21:08:34;0.73;;;0.40;;
19179;SDS011;9722;48.754;8.868;2022-11-20T21:11:55;0.77;;;0.50;;
19179;SDS011;9722;48.754;8.868;2022-11-20T21:15:15;0.40;;;0.40;;
19179;SDS011;9722;48.754;8.868;2022-11-20T21:18:36;1.20;;;1.10;;
19179;SDS011;9722;48.754;8.868;2022-11-20T21:21:57;0.67;;;0.67;;
19179;SDS011;9722;48.754;8.868;2022-11-20T21:25:22;0.93;;;0.70;;
19179;SDS011;9722;48.754;8.868;2022-11-20T21:28:42;0.30;;;0.30;;
19179;SDS011;9722;48.754;8.868;2022-11-20T21:32:03;0.83;;;0.60;;
19179;SDS011;9722;48.754;8.868;2022-11-20T21:35:24;0.53;;;0.50;;
19179;SDS011;9722;48.754;8.868;2022-11-20T21:38:45;0.60;;;0.60;;
19179;SDS011;9722;48.754;8.868;2022-11-20T21:42:06;0.40;;;0.40;;
19179;SDS011;9722;48.754;8.868;2022-11-20T21:45:26;0.40;;;0.40;;
19179;SDS011;9722;48.754;8.868;2022-11-20T21:48:47;0.20;;;0.20;;
19179;SDS011;9722;48.754;8.868;2022-11-20T21:52:08;1.73;;;0.97;;
19179;SDS011;9722;48.754;8.868;2022-11-20T21:55:31;0.57;;;0.57;;
19179;SDS011;9722;48.754;8.868;2022-11-20T21:58:52;2.50;;;0.43;;
19179;SDS011;9722;48.754;8.868;2022-11-20T22:02:13;2.00;;;0.80;;
19179;SDS011;9722;48.754;8.868;2022-11-20T22:05:34;0.40;;;0.40;;
19179;SDS011;9722;48.754;8.868;2022-11-20T22:08:54;0.30;;;0.30;;
19179;SDS011;9722;48.754;8.868;2022-11-20T22:12:15;0.77;;;0.30;;
19179;SDS011;9722;48.754;8.868;2022-11-20T22:15:35;0.73;;;0.60;;
19179;SDS011;9722;48.754;8.868;2022-11-20T22:18:56;1.30;;;0.90;;
19179;SDS011;9722;48.754;8.868;2022-11-20T22:22:17;3.43;;;2.43;;